createdAt,value
2016-09-10T00:00:44.608Z,80.02
2016-09-10T00:15:38.015Z,80.3
2016-09-10T00:30:38.033Z,80.73
2016-09-10T00:45:38.018Z,81.73
2016-09-10T01:00:38.022Z,81.42
2016-09-10T01:15:43.062Z,81.26
2016-09-10T01:30:38.078Z,81.66
2016-09-10T01:45:48.946Z,82.2
2016-09-10T02:00:38.033Z,82.67
2016-09-10T02:15:38.036Z,83.05
2016-09-10T02:30:38.114Z,82.57
2016-09-10T02:45:43.083Z,82.62
2016-09-10T03:00:49.400Z,82.92
2016-09-10T03:15:43.090Z,82.78
2016-09-10T03:30:38.070Z,83.08
2016-09-10T03:45:38.054Z,83.93
2016-09-10T04:00:38.063Z,84.63
2016-09-10T04:15:46.285Z,83.26
2016-09-10T04:30:43.019Z,83.73
2016-09-10T04:45:38.060Z,84.65
2016-09-10T05:00:38.060Z,85.15
2016-09-10T05:15:43.105Z,85.63
2016-09-10T05:30:38.066Z,85.69
2016-09-10T05:45:48.799Z,85.85
2016-09-10T06:00:50.492Z,86.42
2016-09-10T06:15:42.655Z,86.63
2016-09-10T06:30:38.067Z,86.46
2016-09-10T06:45:38.077Z,86.74
2016-09-10T07:00:38.122Z,86.85
2016-09-10T07:15:42.289Z,87.21
2016-09-10T07:30:48.883Z,86.91
2016-09-10T07:45:48.997Z,87.87
2016-09-10T08:00:38.117Z,86.42
2016-09-10T08:15:38.127Z,84.99
2016-09-10T08:30:38.085Z,83.25
2016-09-10T08:45:38.100Z,80.84
2016-09-10T09:00:38.127Z,80.51
2016-09-10T09:15:49.032Z,79.79
2016-09-10T09:30:47.355Z,77.55
2016-09-10T09:45:47.278Z,66.47
2016-09-10T10:00:42.748Z,64.06
2016-09-10T10:15:46.439Z,65.48
2016-09-10T10:30:38.117Z,65.7
2016-09-10T10:45:38.135Z,64.44
2016-09-10T11:00:38.137Z,65.48
2016-09-10T11:15:44.288Z,66.52
2016-09-10T11:30:38.133Z,61.4
2016-09-10T11:45:43.180Z,59.37
2016-09-10T12:00:43.182Z,59.28
2016-09-10T12:15:43.227Z,57.63
2016-09-10T12:30:43.084Z,56.56
2016-09-10T12:45:43.195Z,56.89
2016-09-10T13:00:38.165Z,57.13
2016-09-10T13:15:38.146Z,54.61
2016-09-10T13:30:38.187Z,54.05
2016-09-10T13:45:38.149Z,51.08
2016-09-10T14:00:38.149Z,49.63
2016-09-10T14:15:38.167Z,50.54
2016-09-10T14:30:43.015Z,50.16
2016-09-10T14:45:38.162Z,54.67
2016-09-10T15:00:38.157Z,52.75
2016-09-10T15:15:42.378Z,51.15
2016-09-10T15:30:38.189Z,53.47
2016-09-10T15:45:38.204Z,52.33
2016-09-10T16:00:43.211Z,50.5
2016-09-10T16:15:38.172Z,54.15
2016-09-10T16:30:40.409Z,55.33
2016-09-10T16:45:38.236Z,57.54
2016-09-10T17:00:38.182Z,59.17
2016-09-10T17:15:38.179Z,61.13
2016-09-10T17:30:38.249Z,62.02
2016-09-10T17:45:38.212Z,63.71
2016-09-10T18:00:38.196Z,64.9
2016-09-10T18:15:38.221Z,65.92
2016-09-10T18:30:52.907Z,65.43
2016-09-10T18:45:45.797Z,65.87
2016-09-10T19:00:44.950Z,67.84
2016-09-10T19:15:38.199Z,68.51
2016-09-10T19:30:38.203Z,69.49
2016-09-10T19:45:38.211Z,70.91
2016-09-10T20:00:38.260Z,71.24
2016-09-10T20:15:38.221Z,72.07
2016-09-10T20:30:44.520Z,71.79
2016-09-10T20:45:42.421Z,72.82
2016-09-10T21:00:38.324Z,73.72
2016-09-10T21:15:38.219Z,73.33
2016-09-10T21:30:43.254Z,73.98
2016-09-10T21:45:43.287Z,74.55
2016-09-10T22:00:38.299Z,75.14
2016-09-10T22:15:38.209Z,75.52
2016-09-10T22:30:38.227Z,75.92
2016-09-10T22:45:43.266Z,75.48
2016-09-10T23:00:42.631Z,75.76
2016-09-10T23:15:43.165Z,76.04
2016-09-10T23:30:42.863Z,75.81
2016-09-10T23:45:38.237Z,76.46
